Time;durP1;ratioP1;P1;durP2;ratioP2;P2;SDS_P1;SDS_P2;PMS_P1;PMS_P2;Temp;Humidity;BMP_temperature;BMP_pressure;BME280_temperature;BME280_humidity;BME280_pressure;Samples;Min_cycle;Max_cycle;Signal;HPM_P1;HPM_P2
2024/03/03 00:00:13;;;;;;;22.60;8.63;;;;;;;6.00;100.00;94735.34;5037766;28;20213;-70
2024/03/03 00:02:39;;;;;;;19.77;8.47;;;;;;;5.91;100.00;94731.22;5037331;28;20431;-70
2024/03/03 00:05:06;;;;;;;28.73;9.20;;;;;;;6.09;100.00;94725.34;5037438;28;20212;-70
2024/03/03 00:07:33;;;;;;;20.40;7.93;;;;;;;6.12;100.00;94732.03;5038188;28;20205;-70
2024/03/03 00:09:59;;;;;;;20.57;8.07;;;;;;;6.04;100.00;94736.59;5037133;28;20411;-70
2024/03/03 00:12:27;;;;;;;19.73;8.50;;;;;;;6.18;100.00;94733.91;5038327;28;20712;-69
2024/03/03 00:14:54;;;;;;;24.97;9.07;;;;;;;5.93;100.00;94734.44;5036605;28;20221;-68
2024/03/03 00:17:20;;;;;;;22.17;8.40;;;;;;;5.84;100.00;94728.53;5037307;28;20216;-69
2024/03/03 00:19:47;;;;;;;24.67;8.87;;;;;;;5.81;100.00;94730.69;5036771;28;20221;-69
2024/03/03 00:22:13;;;;;;;22.70;8.63;;;;;;;5.82;100.00;94732.34;5038132;28;20197;-69
2024/03/03 00:24:41;;;;;;;28.93;9.50;;;;;;;5.86;100.00;94728.34;5036473;28;20705;-68
2024/03/03 00:27:07;;;;;;;32.37;10.53;;;;;;;5.70;100.00;94720.69;5036779;28;20362;-69
2024/03/03 00:29:35;;;;;;;30.83;10.00;;;;;;;5.52;100.00;94728.13;5038039;28;20848;-69
2024/03/03 00:32:02;;;;;;;30.30;10.20;;;;;;;5.55;100.00;94719.94;5036773;28;20231;-69
2024/03/03 00:34:28;;;;;;;27.53;9.47;;;;;;;5.54;100.00;94718.31;5035828;28;20256;-69
2024/03/03 00:36:55;;;;;;;32.60;9.83;;;;;;;5.64;100.00;94713.59;5037381;28;20287;-69
2024/03/03 00:39:22;;;;;;;26.53;10.23;;;;;;;5.65;100.00;94702.97;5037464;28;20197;-69
2024/03/03 00:41:48;;;;;;;26.73;9.70;;;;;;;5.60;100.00;94707.09;5036448;28;20376;-69
2024/03/03 00:44:15;;;;;;;21.93;9.57;;;;;;;5.62;100.00;94694.69;5036329;28;20385;-69
2024/03/03 00:46:43;;;;;;;25.00;9.17;;;;;;;5.85;100.00;94696.16;5037356;28;20211;-69
2024/03/03 00:49:09;;;;;;;27.33;9.37;;;;;;;5.62;100.00;94695.47;5036734;28;20201;-69
2024/03/03 00:51:38;;;;;;;25.27;10.03;;;;;;;5.79;100.00;94690.88;5036597;28;20247;-69
2024/03/03 00:54:05;;;;;;;28.13;9.77;;;;;;;5.64;100.00;94697.94;5036360;28;20759;-69
2024/03/03 00:56:31;;;;;;;24.87;10.17;;;;;;;5.75;100.00;94690.41;5037315;28;20201;-69
2024/03/03 00:58:58;;;;;;;24.63;9.17;;;;;;;5.70;100.00;94690.16;5036343;28;20614;-68
2024/03/03 01:01:24;;;;;;;28.03;9.53;;;;;;;5.61;100.00;94698.28;5036018;28;21008;-69
2024/03/03 01:03:52;;;;;;;27.03;9.67;;;;;;;5.63;100.00;94696.31;5036283;28;20236;-70
2024/03/03 01:06:19;;;;;;;31.00;10.77;;;;;;;5.73;100.00;94687.16;5036506;28;20353;-69
2024/03/03 01:08:45;;;;;;;25.53;10.33;;;;;;;5.87;100.00;94682.91;5036713;28;20212;-69
2024/03/03 01:11:12;;;;;;;23.73;9.63;;;;;;;5.90;100.00;94683.34;5036507;28;20201;-69
2024/03/03 01:13:38;;;;;;;25.53;9.60;;;;;;;5.92;100.00;94691.81;5035967;28;20643;-70
2024/03/03 01:16:06;;;;;;;24.10;8.83;;;;;;;6.11;100.00;94688.59;5036497;28;20221;-69
2024/03/03 01:18:32;;;;;;;25.40;9.07;;;;;;;6.03;100.00;94680.84;5036847;28;20197;-70
2024/03/03 01:21:01;;;;;;;30.90;11.13;;;;;;;6.18;100.00;94671.94;5035989;28;20209;-70
2024/03/03 01:23:28;;;;;;;24.27;9.77;;;;;;;6.07;100.00;94675.09;5035877;28;20229;-69
2024/03/03 01:25:54;;;;;;;21.47;7.87;;;;;;;6.09;100.00;94667.03;5036209;28;20197;-69
2024/03/03 01:28:21;;;;;;;21.40;9.40;;;;;;;6.16;100.00;94667.91;5035720;28;20730;-70
2024/03/03 01:30:47;;;;;;;24.73;9.80;;;;;;;6.16;100.00;94658.25;5036666;28;20205;-69
2024/03/03 01:33:14;;;;;;;25.27;8.57;;;;;;;6.00;100.00;94665.56;5035062;28;20230;-70
2024/03/03 01:35:41;;;;;;;21.77;8.63;;;;;;;5.99;100.00;94660.53;5035737;28;20224;-70
2024/03/03 01:38:08;;;;;;;18.60;7.97;;;;;;;5.99;100.00;94650.84;5036340;28;20212;-69
2024/03/03 01:40:35;;;;;;;20.20;8.03;;;;;;;5.97;100.00;94641.59;5036810;28;20197;-69
2024/03/03 01:43:03;;;;;;;20.17;8.77;;;;;;;6.21;100.00;94642.81;5034752;28;20221;-70
2024/03/03 01:45:30;;;;;;;21.40;8.70;;;;;;;6.05;100.00;94640.47;5035814;28;20197;-69
2024/03/03 01:47:57;;;;;;;19.20;8.53;;;;;;;5.96;100.00;94626.88;5036079;28;20197;-70
2024/03/03 01:50:25;;;;;;;18.30;7.90;;;;;;;5.94;100.00;94627.09;5035908;28;20698;-68
2024/03/03 01:52:53;;;;;;;20.27;7.93;;;;;;;5.98;100.00;94630.13;5035377;28;20567;-69
2024/03/03 01:55:22;;;;;;;21.83;9.00;;;;;;;6.09;100.00;94626.00;5035338;28;20247;-70
2024/03/03 01:57:52;;;;;;;17.07;7.17;;;;;;;5.95;100.00;94628.69;5034881;28;20365;-69
2024/03/03 02:00:19;;;;;;;22.17;9.00;;;;;;;6.02;100.00;94619.13;5035843;28;20478;-70
2024/03/03 02:02:46;;;;;;;20.13;8.37;;;;;;;6.11;100.00;94631.06;5034751;28;20237;-70
2024/03/03 02:05:13;;;;;;;23.23;8.63;;;;;;;6.00;100.00;94623.72;5034635;28;20201;-69
2024/03/03 02:07:40;;;;;;;25.20;9.00;;;;;;;6.01;100.00;94616.69;5035289;28;20563;-69
2024/03/03 02:10:09;;;;;;;24.30;9.07;;;;;;;6.22;100.00;94625.31;5035380;28;20197;-70
2024/03/03 02:12:37;;;;;;;22.03;9.43;;;;;;;6.41;100.00;94625.44;5035452;28;20209;-69
2024/03/03 02:15:06;;;;;;;24.33;9.40;;;;;;;6.46;100.00;94625.69;5034500;28;20465;-69
2024/03/03 02:17:32;;;;;;;28.70;10.37;;;;;;;6.47;100.00;94619.47;5035744;28;20453;-69
2024/03/03 02:19:59;;;;;;;20.97;8.37;;;;;;;6.38;100.00;94615.38;5035423;28;20205;-70
2024/03/03 02:22:27;;;;;;;29.17;9.73;;;;;;;6.38;100.00;94618.00;5035136;28;20213;-69
2024/03/03 02:24:53;;;;;;;25.07;8.93;;;;;;;6.25;100.00;94620.50;5034381;28;20197;-69
2024/03/03 02:27:20;;;;;;;22.83;9.17;;;;;;;6.27;100.00;94618.50;5035409;28;20687;-69
2024/03/03 02:29:46;;;;;;;21.40;8.53;;;;;;;6.32;100.00;94617.94;5034490;28;21329;-70
2024/03/03 02:32:13;;;;;;;26.73;9.40;;;;;;;6.21;100.00;94619.28;5035512;28;20197;-69
2024/03/03 02:34:39;;;;;;;19.73;8.07;;;;;;;6.29;100.00;94616.53;5034873;28;20236;-69
2024/03/03 02:37:06;;;;;;;24.97;9.67;;;;;;;6.31;100.00;94611.91;5034608;28;20584;-69
2024/03/03 02:39:34;;;;;;;22.83;9.03;;;;;;;6.50;100.00;94613.84;5035064;28;20216;-72
2024/03/03 02:42:01;;;;;;;23.33;9.67;;;;;;;6.44;100.00;94614.63;5035810;28;20214;-69
2024/03/03 02:44:28;;;;;;;35.77;9.77;;;;;;;6.46;100.00;94615.22;5034791;28;20221;-69
2024/03/03 02:46:54;;;;;;;21.73;8.80;;;;;;;6.48;100.00;94612.41;5034697;28;20731;-70
2024/03/03 02:49:21;;;;;;;22.90;8.77;;;;;;;6.44;100.00;94619.84;5034630;28;20760;-69
2024/03/03 02:51:47;;;;;;;20.77;8.87;;;;;;;6.42;100.00;94621.84;5035673;28;20203;-69
2024/03/03 02:54:14;;;;;;;25.33;9.77;;;;;;;6.45;100.00;94618.03;5034299;28;20225;-69
2024/03/03 02:56:42;;;;;;;25.43;9.37;;;;;;;6.70;100.00;94606.94;5035526;28;20228;-70
2024/03/03 02:59:08;;;;;;;24.93;9.77;;;;;;;6.51;100.00;94610.22;5033877;28;20201;-69
2024/03/03 03:01:35;;;;;;;23.23;9.30;;;;;;;6.52;100.00;94611.84;5035288;28;20466;-69
2024/03/03 03:04:01;;;;;;;20.53;8.73;;;;;;;6.58;100.00;94613.72;5034098;28;20241;-69
2024/03/03 03:06:28;;;;;;;24.23;10.03;;;;;;;6.56;100.00;94615.69;5034637;28;20208;-70
2024/03/03 03:08:54;;;;;;;29.93;9.47;;;;;;;6.56;100.00;94620.94;5034624;28;20861;-69
2024/03/03 03:11:21;;;;;;;27.57;9.57;;;;;;;6.67;100.00;94609.94;5034857;28;20627;-69
2024/03/03 03:13:49;;;;;;;25.10;8.67;;;;;;;6.84;100.00;94612.03;5034091;28;20223;-69
2024/03/03 03:16:15;;;;;;;26.73;8.00;;;;;;;6.60;100.00;94614.31;5038108;28;20221;-69
2024/03/03 03:18:42;;;;;;;21.37;8.13;;;;;;;6.68;100.00;94611.53;5038917;28;20730;-69
2024/03/03 03:21:09;;;;;;;24.90;8.90;;;;;;;6.55;100.00;94621.94;5038992;28;20977;-69
2024/03/03 03:23:36;;;;;;;21.40;9.20;;;;;;;6.58;100.00;94625.97;5038170;28;20235;-70
2024/03/03 03:26:03;;;;;;;23.20;8.63;;;;;;;6.66;100.00;94624.03;5038112;28;20199;-69
2024/03/03 03:28:29;;;;;;;20.03;7.97;;;;;;;6.47;100.00;94629.94;5036392;28;20201;-69
2024/03/03 03:30:57;;;;;;;21.93;9.37;;;;;;;6.73;100.00;94630.09;5038415;28;20701;-70
2024/03/03 03:33:23;;;;;;;22.47;9.50;;;;;;;6.65;100.00;94628.44;5037465;28;20417;-69
2024/03/03 03:35:50;;;;;;;27.93;10.00;;;;;;;6.59;100.00;94627.59;5038022;28;20221;-69
2024/03/03 03:38:16;;;;;;;22.77;8.97;;;;;;;6.61;100.00;94636.88;5038350;28;20209;-69
2024/03/03 03:40:43;;;;;;;20.90;9.47;;;;;;;6.65;100.00;94638.91;5037498;28;20939;-68
2024/03/03 03:43:09;;;;;;;32.97;9.63;;;;;;;6.66;100.00;94639.72;5037125;28;20225;-69
2024/03/03 03:45:36;;;;;;;24.77;9.23;;;;;;;6.72;100.00;94642.38;5038332;28;20218;-69
2024/03/03 03:48:04;;;;;;;23.77;9.03;;;;;;;6.97;100.00;94642.72;5037932;28;20278;-69
2024/03/03 03:50:31;;;;;;;28.17;10.57;;;;;;;6.73;100.00;94640.56;5038048;28;20209;-68
2024/03/03 03:52:57;;;;;;;26.03;10.13;;;;;;;6.82;100.00;94640.22;5038057;28;20228;-69
2024/03/03 03:55:24;;;;;;;20.43;8.03;;;;;;;6.42;100.00;94631.50;5037155;28;20711;-69
2024/03/03 03:57:50;;;;;;;26.47;10.60;;;;;;;6.73;100.00;94632.72;5036648;28;20208;-69
2024/03/03 04:00:17;;;;;;;27.20;8.93;;;;;;;6.87;100.00;94631.78;5039477;28;20659;-69
2024/03/03 04:02:44;;;;;;;25.97;9.90;;;;;;;6.90;100.00;94636.66;5037254;28;20229;-69
2024/03/03 04:05:12;;;;;;;25.07;10.07;;;;;;;7.12;100.00;94632.94;5037179;28;20817;-70
2024/03/03 04:07:38;;;;;;;26.80;9.77;;;;;;;6.52;100.00;94632.78;5037462;28;20205;-70
2024/03/03 04:10:07;;;;;;;24.60;9.03;;;;;;;6.71;100.00;94632.09;5038357;28;20201;-69
2024/03/03 04:12:33;;;;;;;26.13;9.50;;;;;;;6.80;100.00;94631.75;5037497;28;20290;-69
2024/03/03 04:15:00;;;;;;;21.60;9.07;;;;;;;6.89;100.00;94629.78;5036665;28;20213;-70
2024/03/03 04:17:26;;;;;;;24.40;9.07;;;;;;;6.83;100.00;94622.69;5037878;28;20573;-69
2024/03/03 04:19:53;;;;;;;28.13;9.87;;;;;;;6.85;100.00;94629.38;5037458;28;20208;-69
2024/03/03 04:22:22;;;;;;;26.37;9.70;;;;;;;6.93;100.00;94620.53;5037337;28;20201;-70
2024/03/03 04:24:49;;;;;;;33.50;11.03;;;;;;;6.50;100.00;94619.06;5036492;28;20324;-70
2024/03/03 04:27:15;;;;;;;22.10;8.93;;;;;;;6.69;100.00;94626.25;5036973;28;20604;-70
2024/03/03 04:29:46;;;;;;;24.93;10.00;;;;;;;6.87;100.00;94623.94;5037258;28;20401;-69
2024/03/03 04:32:13;;;;;;;25.00;8.70;;;;;;;6.70;100.00;94627.88;5037233;28;20202;-69
2024/03/03 04:34:40;;;;;;;34.17;10.37;;;;;;;6.71;100.00;94632.09;5036824;28;20703;-70
2024/03/03 04:37:07;;;;;;;30.23;10.20;;;;;;;6.87;100.00;94634.41;5036452;28;20225;-70
2024/03/03 04:39:35;;;;;;;31.23;10.37;;;;;;;7.06;100.00;94631.09;5037715;28;20263;-70
2024/03/03 04:42:02;;;;;;;28.37;10.33;;;;;;;6.92;100.00;94632.00;5037109;28;20898;-69
2024/03/03 04:44:28;;;;;;;28.47;10.53;;;;;;;6.72;100.00;94631.09;5036768;28;20320;-70
2024/03/03 04:46:55;;;;;;;29.37;10.53;;;;;;;6.90;100.00;94634.84;5036608;28;20197;-69
2024/03/03 04:49:21;;;;;;;37.40;12.37;;;;;;;7.00;100.00;94632.69;5037312;28;20212;-69
2024/03/03 04:51:48;;;;;;;33.80;11.63;;;;;;;7.02;100.00;94629.84;5036205;28;20208;-69
2024/03/03 04:54:14;;;;;;;27.97;10.77;;;;;;;6.99;100.00;94631.06;5035814;28;20691;-70
2024/03/03 04:56:42;;;;;;;27.03;10.07;;;;;;;6.93;100.00;94623.97;5037553;28;20232;-68
2024/03/03 04:59:09;;;;;;;32.47;11.40;;;;;;;6.68;100.00;94625.44;5036514;28;20232;-69
2024/03/03 05:01:41;;;;;;;27.80;10.40;;;;;;;6.88;100.00;94633.41;5037010;28;20200;-70
2024/03/03 05:04:07;;;;;;;28.13;9.77;;;;;;;6.60;100.00;94637.88;5035917;28;20756;-68
2024/03/03 05:06:33;;;;;;;28.50;10.93;;;;;;;6.75;100.00;94644.59;5036127;28;20467;-69
2024/03/03 05:09:00;;;;;;;26.30;10.77;;;;;;;6.71;100.00;94639.97;5035845;28;20212;-69
2024/03/03 05:11:26;;;;;;;23.70;10.07;;;;;;;6.68;100.00;94642.94;5037544;28;20209;-69
2024/03/03 05:13:54;;;;;;;31.13;10.83;;;;;;;6.89;100.00;94629.78;5035082;28;20483;-69
2024/03/03 05:16:21;;;;;;;29.60;11.07;;;;;;;6.67;100.00;94641.34;5036348;28;20227;-70
2024/03/03 05:18:47;;;;;;;30.23;10.20;;;;;;;6.60;100.00;94650.16;5036798;28;20205;-68
2024/03/03 05:21:14;;;;;;;27.13;11.17;;;;;;;6.64;100.00;94639.09;5036359;28;20586;-70
2024/03/03 05:23:40;;;;;;;27.83;10.60;;;;;;;6.69;100.00;94644.56;5035418;28;21326;-70
2024/03/03 05:26:07;;;;;;;28.60;11.13;;;;;;;6.46;100.00;94643.22;5036301;28;20199;-69
2024/03/03 05:28:33;;;;;;;27.10;10.77;;;;;;;6.26;100.00;94644.84;5035840;28;20208;-72
2024/03/03 05:31:05;;;;;;;25.80;10.17;;;;;;;6.28;100.00;94640.25;5036256;28;20674;-70
2024/03/03 05:33:32;;;;;;;26.53;10.00;;;;;;;5.91;100.00;94643.16;5034814;28;20225;-70
2024/03/03 05:35:59;;;;;;;23.17;9.10;;;;;;;6.14;100.00;94644.56;5036219;28;20221;-69
2024/03/03 05:38:25;;;;;;;24.50;9.37;;;;;;;6.31;100.00;94647.72;5035718;28;20211;-69
2024/03/03 05:40:52;;;;;;;27.70;10.47;;;;;;;6.26;100.00;94655.31;5036154;28;20663;-69
2024/03/03 05:43:18;;;;;;;26.90;10.87;;;;;;;6.32;100.00;94651.94;5035595;28;20425;-69
2024/03/03 05:45:45;;;;;;;25.70;10.10;;;;;;;6.24;100.00;94649.47;5035174;28;20224;-69
2024/03/03 05:48:13;;;;;;;24.77;9.47;;;;;;;6.18;100.00;94650.22;5035574;28;20227;-69
2024/03/03 05:50:39;;;;;;;28.70;9.90;;;;;;;6.04;100.00;94645.09;5035848;28;20224;-69
2024/03/03 05:53:06;;;;;;;30.33;10.63;;;;;;;6.19;100.00;94651.84;5035474;28;20240;-69
2024/03/03 05:55:33;;;;;;;28.73;10.60;;;;;;;6.28;100.00;94653.31;5035453;28;20213;-70
2024/03/03 05:57:59;;;;;;;24.23;10.87;;;;;;;6.42;100.00;94652.44;5035313;28;20284;-69
2024/03/03 06:00:26;;;;;;;25.97;10.50;;;;;;;6.45;100.00;94657.28;5035608;28;20367;-69
2024/03/03 06:02:52;;;;;;;25.47;10.30;;;;;;;6.32;100.00;94663.22;5035669;28;20236;-71
2024/03/03 06:05:20;;;;;;;24.13;10.30;;;;;;;6.25;100.00;94659.75;5033945;28;20589;-69
2024/03/03 06:07:48;;;;;;;28.73;9.77;;;;;;;6.10;100.00;94664.22;5035362;28;20193;-70
2024/03/03 06:10:14;;;;;;;24.77;10.37;;;;;;;5.92;100.00;94657.00;5035962;28;20205;-71
2024/03/03 06:12:41;;;;;;;26.83;10.77;;;;;;;6.31;100.00;94652.94;5036912;28;20604;-70
2024/03/03 06:15:08;;;;;;;24.83;9.17;;;;;;;6.03;100.00;94656.53;5034540;28;20197;-68
2024/03/03 06:17:35;;;;;;;32.57;11.70;;;;;;;6.33;100.00;94654.38;5035282;28;20314;-71
2024/03/03 06:20:02;;;;;;;32.77;11.47;;;;;;;6.35;100.00;94662.84;5035236;28;20209;-69
2024/03/03 06:22:30;;;;;;;31.50;10.43;;;;;;;6.53;100.00;94663.19;5035484;28;20672;-70
2024/03/03 06:24:56;;;;;;;30.03;10.63;;;;;;;6.32;100.00;94665.03;5034990;28;20204;-71
2024/03/03 06:27:23;;;;;;;30.90;11.83;;;;;;;6.45;100.00;94663.31;5036288;28;20664;-69
2024/03/03 06:29:49;;;;;;;24.40;9.90;;;;;;;6.53;100.00;94659.75;5035067;28;20731;-69
2024/03/03 06:32:16;;;;;;;24.70;10.47;;;;;;;6.27;100.00;94651.69;5036458;28;20197;-69
2024/03/03 06:34:45;;;;;;;26.53;10.23;;;;;;;6.44;100.00;94648.63;5035098;28;20601;-69
2024/03/03 06:37:14;;;;;;;24.63;9.53;;;;;;;6.02;100.00;94644.44;5036176;28;20765;-71
2024/03/03 06:39:44;;;;;;;27.90;10.30;;;;;;;6.28;100.00;94645.47;5036101;28;20200;-69
2024/03/03 06:42:10;;;;;;;24.50;9.70;;;;;;;5.97;100.00;94639.78;5035295;28;20205;-70
2024/03/03 06:44:40;;;;;;;23.63;9.77;;;;;;;6.08;100.00;94645.34;5034814;28;20224;-69
2024/03/03 06:47:06;;;;;;;24.00;10.00;;;;;;;6.22;100.00;94651.47;5035417;28;20219;-69
2024/03/03 06:49:33;;;;;;;24.63;9.57;;;;;;;6.37;100.00;94660.84;5036936;28;20208;-69
2024/03/03 06:51:59;;;;;;;25.80;10.37;;;;;;;6.37;100.00;94660.84;5039140;28;20212;-69
2024/03/03 06:54:26;;;;;;;26.53;10.30;;;;;;;6.30;100.00;94661.78;5039389;28;20225;-70
2024/03/03 06:56:54;;;;;;;23.97;9.67;;;;;;;6.60;100.00;94663.22;5039698;28;20221;-70
2024/03/03 06:59:20;;;;;;;25.43;9.53;;;;;;;6.40;100.00;94665.72;5039311;28;20667;-69
2024/03/03 07:01:47;;;;;;;23.30;9.37;;;;;;;6.17;100.00;94675.56;5039592;28;20205;-71
2024/03/03 07:04:23;;;;;;;25.07;9.10;;;;;;;6.01;100.00;94671.56;5039609;28;20232;-71
2024/03/03 07:06:50;;;;;;;23.53;9.70;;;;;;;5.80;100.00;94675.00;5039047;28;20280;-71
2024/03/03 07:09:18;;;;;;;22.87;9.53;;;;;;;5.93;100.00;94679.56;5038822;28;20229;-71
2024/03/03 07:11:44;;;;;;;24.83;9.30;;;;;;;6.09;100.00;94672.28;5039016;28;20294;-71
2024/03/03 07:14:12;;;;;;;23.27;9.47;;;;;;;6.31;100.00;94660.78;5038865;28;20221;-71
2024/03/03 07:16:39;;;;;;;29.47;9.83;;;;;;;6.31;100.00;94660.78;5038227;28;20224;-69
2024/03/03 07:19:05;;;;;;;27.37;9.60;;;;;;;6.44;100.00;94668.72;5038507;28;20259;-71
2024/03/03 07:21:32;;;;;;;28.13;10.30;;;;;;;6.36;100.00;94674.91;5038672;28;20220;-69
2024/03/03 07:23:58;;;;;;;25.17;9.47;;;;;;;5.92;100.00;94675.31;5037869;28;20960;-72
2024/03/03 07:26:26;;;;;;;24.77;10.47;;;;;;;6.06;100.00;94672.66;5039001;28;20205;-71
2024/03/03 07:28:52;;;;;;;22.03;8.73;;;;;;;6.11;100.00;94665.84;5038825;28;20197;-70
2024/03/03 07:31:20;;;;;;;22.53;10.17;;;;;;;6.12;100.00;94670.09;5039128;28;20201;-71
2024/03/03 07:33:47;;;;;;;24.90;9.70;;;;;;;6.47;100.00;94665.75;5038282;28;20224;-71
2024/03/03 07:36:14;;;;;;;23.03;9.53;;;;;;;6.60;100.00;94669.25;5039598;28;20229;-70
2024/03/03 07:38:40;;;;;;;27.63;9.47;;;;;;;6.35;100.00;94664.63;5038365;28;20231;-71
2024/03/03 07:41:07;;;;;;;24.50;9.43;;;;;;;6.49;100.00;94661.97;5038458;28;21128;-71
2024/03/03 07:43:34;;;;;;;32.70;9.67;;;;;;;6.48;100.00;94673.41;5038351;28;20233;-69
2024/03/03 07:46:00;;;;;;;26.73;9.93;;;;;;;6.30;100.00;94660.00;5039035;28;20201;-70
2024/03/03 07:48:28;;;;;;;25.97;10.30;;;;;;;6.64;100.00;94657.41;5038416;28;20687;-71
2024/03/03 07:50:55;;;;;;;31.37;10.37;;;;;;;6.65;100.00;94659.84;5038411;28;20208;-69
2024/03/03 07:53:21;;;;;;;25.90;10.07;;;;;;;6.75;100.00;94657.69;5038075;28;20217;-70
2024/03/03 07:55:48;;;;;;;29.97;11.00;;;;;;;6.84;100.00;94668.81;5038740;28;20207;-70
2024/03/03 07:58:16;;;;;;;27.90;10.30;;;;;;;6.87;100.00;94673.66;5038347;28;20225;-70
2024/03/03 08:00:43;;;;;;;25.70;9.13;;;;;;;6.93;100.00;94672.91;5035585;28;20216;-71
2024/03/03 08:03:09;;;;;;;22.70;9.60;;;;;;;6.87;100.00;94668.44;5034333;28;20320;-72
2024/03/03 08:05:38;;;;;;;24.17;9.10;;;;;;;6.96;100.00;94656.81;5036185;28;20205;-69
2024/03/03 08:08:05;;;;;;;27.93;10.33;;;;;;;7.01;100.00;94657.03;5035454;28;20208;-71
2024/03/03 08:10:33;;;;;;;28.47;10.57;;;;;;;6.95;100.00;94661.25;5036130;28;20259;-69
2024/03/03 08:12:59;;;;;;;24.63;9.27;;;;;;;6.79;100.00;94665.97;5035031;28;20478;-69
2024/03/03 08:15:26;;;;;;;21.47;9.80;;;;;;;6.91;100.00;94669.66;5035933;28;20751;-69
2024/03/03 08:17:52;;;;;;;25.67;9.67;;;;;;;6.65;100.00;94674.75;5035377;28;20228;-69
2024/03/03 08:20:19;;;;;;;28.83;9.43;;;;;;;6.47;100.00;94677.03;5036029;28;20215;-69
2024/03/03 08:22:47;;;;;;;28.90;10.17;;;;;;;6.79;100.00;94671.22;5034792;28;20240;-70
2024/03/03 08:25:14;;;;;;;28.50;10.53;;;;;;;6.90;100.00;94673.31;5036020;28;20587;-71
2024/03/03 08:27:41;;;;;;;26.53;10.47;;;;;;;7.11;100.00;94681.06;5036276;28;20208;-70
2024/03/03 08:30:11;;;;;;;21.40;8.70;;;;;;;6.83;100.00;94677.69;5035919;28;20205;-69
2024/03/03 08:32:38;;;;;;;25.00;9.63;;;;;;;6.88;100.00;94675.28;5036095;28;20363;-70
2024/03/03 08:35:06;;;;;;;25.43;10.03;;;;;;;6.78;100.00;94669.59;5035249;28;20271;-71
2024/03/03 08:37:32;;;;;;;23.80;9.40;;;;;;;6.93;100.00;94671.09;5036768;28;20233;-70
2024/03/03 08:40:00;;;;;;;25.87;10.17;;;;;;;7.16;100.00;94671.63;5036193;28;20686;-72
2024/03/03 08:42:27;;;;;;;25.00;9.93;;;;;;;6.89;100.00;94667.25;5036392;28;20208;-69
2024/03/03 08:44:54;;;;;;;21.63;8.03;;;;;;;6.85;100.00;94659.97;5035318;28;20205;-69
2024/03/03 08:47:20;;;;;;;21.40;8.40;;;;;;;6.86;100.00;94645.88;5037075;28;20200;-71
2024/03/03 08:49:47;;;;;;;17.67;7.63;;;;;;;6.45;100.00;94652.03;5036065;28;20200;-69
2024/03/03 08:52:13;;;;;;;23.73;8.93;;;;;;;6.63;100.00;94655.78;5037028;28;20205;-71
2024/03/03 08:54:40;;;;;;;21.87;9.17;;;;;;;6.94;100.00;94661.44;5037378;28;20248;-72
2024/03/03 08:57:08;;;;;;;25.43;9.83;;;;;;;7.02;100.00;94658.66;5036934;28;20804;-70
2024/03/03 08:59:35;;;;;;;24.30;9.60;;;;;;;7.33;100.00;94660.63;5036273;28;20220;-70
2024/03/03 09:02:03;;;;;;;27.27;10.63;;;;;;;7.12;100.00;94659.13;5036836;28;20254;-70
2024/03/03 09:04:37;;;;;;;25.67;10.00;;;;;;;7.07;100.00;94669.38;5037050;28;20347;-69
2024/03/03 09:07:05;;;;;;;25.57;9.43;;;;;;;7.39;100.00;94670.31;5036452;28;20636;-71
2024/03/03 09:09:31;;;;;;;26.13;9.23;;;;;;;7.21;100.00;94665.81;5037296;28;20278;-72
2024/03/03 09:11:58;;;;;;;25.30;10.07;;;;;;;6.73;100.00;94664.13;5036609;28;20201;-70
2024/03/03 09:14:26;;;;;;;22.93;8.87;;;;;;;7.26;100.00;94663.41;5035473;28;20417;-71
2024/03/03 09:16:52;;;;;;;21.13;9.20;;;;;;;7.46;100.00;94660.69;5037012;28;20229;-69
2024/03/03 09:19:19;;;;;;;21.73;8.53;;;;;;;7.28;100.00;94663.03;5037100;28;20205;-69
2024/03/03 09:21:45;;;;;;;23.37;9.60;;;;;;;7.12;100.00;94662.53;5036727;28;20209;-70
2024/03/03 09:24:11;;;;;;;22.43;9.27;;;;;;;6.89;100.00;94661.22;5035792;28;20248;-69
2024/03/03 09:26:39;;;;;;;23.77;8.73;;;;;;;6.94;100.00;94669.31;5037209;28;20215;-70
2024/03/03 09:29:06;;;;;;;24.63;8.27;;;;;;;7.14;100.00;94671.03;5036778;28;21257;-69
2024/03/03 09:31:33;;;;;;;21.10;8.87;;;;;;;7.36;100.00;94665.47;5036454;28;20209;-71
2024/03/03 09:34:00;;;;;;;23.07;8.67;;;;;;;7.41;100.00;94663.06;5035891;28;20225;-69
2024/03/03 09:36:26;;;;;;;24.27;8.77;;;;;;;7.62;100.00;94667.38;5036621;28;20212;-70
2024/03/03 09:38:53;;;;;;;20.83;9.27;;;;;;;7.42;100.00;94663.88;5036722;28;20229;-70
2024/03/03 09:41:20;;;;;;;24.57;9.03;;;;;;;7.62;100.00;94659.53;5036229;28;20217;-71
2024/03/03 09:43:51;;;;;;;24.63;8.93;;;;;;;8.09;100.00;94658.41;5036155;28;20232;-71
2024/03/03 09:46:17;;;;;;;25.80;9.63;;;;;;;7.97;100.00;94648.72;5036051;28;20263;-69
2024/03/03 09:48:46;;;;;;;22.37;9.63;;;;;;;8.27;100.00;94631.63;5036260;28;20706;-69
2024/03/03 09:51:13;;;;;;;24.00;8.90;;;;;;;8.22;100.00;94637.47;5036342;28;20201;-69
2024/03/03 09:53:41;;;;;;;22.13;8.80;;;;;;;8.28;100.00;94641.13;5035172;28;20574;-70
2024/03/03 09:56:10;;;;;;;23.17;9.00;;;;;;;8.22;100.00;94640.09;5035678;28;20227;-71
2024/03/03 09:58:36;;;;;;;23.27;9.10;;;;;;;8.14;100.00;94644.72;5036285;28;20258;-69
2024/03/03 10:01:05;;;;;;;25.00;9.33;;;;;;;8.56;100.00;94645.13;5036463;28;20589;-70
2024/03/03 10:03:36;;;;;;;22.97;8.67;;;;;;;9.18;100.00;94636.53;5035726;28;20241;-71
2024/03/03 10:06:09;;;;;;;20.47;7.90;;;;;;;9.22;100.00;94636.94;5036232;28;20206;-70
2024/03/03 10:08:40;;;;;;;22.97;9.33;;;;;;;9.26;100.00;94638.94;5037257;28;20212;-69
2024/03/03 10:11:09;;;;;;;26.67;9.43;;;;;;;9.14;100.00;94637.16;5035664;28;20208;-70
2024/03/03 10:13:35;;;;;;;24.87;9.07;;;;;;;8.83;100.00;94631.75;5035635;28;20233;-71
2024/03/03 10:16:03;;;;;;;22.63;8.90;;;;;;;9.42;100.00;94627.97;5036153;28;20205;-70
2024/03/03 10:18:30;;;;;;;22.60;8.90;;;;;;;9.27;100.00;94631.88;5036347;28;20227;-69
2024/03/03 10:20:57;;;;;;;20.73;8.27;;;;;;;9.73;100.00;94631.44;5035591;28;20581;-71
2024/03/03 10:23:28;;;;;;;20.63;8.50;;;;;;;9.98;100.00;94621.81;5035853;28;20236;-71
2024/03/03 10:25:55;;;;;;;23.13;8.03;;;;;;;9.76;100.00;94625.78;5035716;28;20209;-71
2024/03/03 10:28:22;;;;;;;25.33;9.20;;;;;;;10.21;100.00;94624.72;5036311;28;20205;-70
2024/03/03 10:30:48;;;;;;;21.83;8.47;;;;;;;10.39;100.00;94630.03;5035708;28;20762;-72
2024/03/03 10:33:15;;;;;;;21.07;8.23;;;;;;;10.29;100.00;94626.28;5035489;28;20217;-69
2024/03/03 10:35:41;;;;;;;26.23;8.43;;;;;;;10.58;100.00;94629.09;5035795;28;20205;-71
2024/03/03 10:38:11;;;;;;;24.57;8.23;;;;;;;10.99;100.00;94628.25;5036176;28;20217;-72
2024/03/03 10:40:39;;;;;;;20.93;7.93;;;;;;;10.99;100.00;94632.75;5035869;28;20205;-69
2024/03/03 10:43:05;;;;;;;21.57;8.20;;;;;;;10.58;100.00;94637.78;5035539;28;20251;-72
2024/03/03 10:45:32;;;;;;;18.87;7.93;;;;;;;10.50;100.00;94631.97;5035687;28;20278;-70
2024/03/03 10:47:59;;;;;;;18.87;7.17;;;;;;;11.03;100.00;94626.00;5035359;28;20599;-70
2024/03/03 10:50:26;;;;;;;19.17;7.27;;;;;;;11.22;100.00;94628.44;5035925;28;20205;-69
2024/03/03 10:52:54;;;;;;;16.87;7.67;;;;;;;10.46;100.00;94617.63;5035280;28;20340;-72
2024/03/03 10:55:20;;;;;;;19.17;6.97;;;;;;;10.19;100.00;94620.69;5035285;28;20604;-69
2024/03/03 10:57:51;;;;;;;16.60;7.07;;;;;;;10.42;100.00;94619.06;5035789;28;20232;-71
2024/03/03 11:00:22;;;;;;;20.27;8.23;;;;;;;10.42;100.00;94626.97;5036083;28;20212;-70
2024/03/03 11:02:50;;;;;;;21.60;7.17;;;;;;;10.36;100.00;94612.03;5035618;28;20233;-70
2024/03/03 11:05:17;;;;;;;20.30;7.43;;;;;;;10.78;100.00;94616.53;5035260;28;20202;-71
2024/03/03 11:07:44;;;;;;;17.60;6.87;;;;;;;11.11;100.00;94608.09;5035575;28;20556;-72
2024/03/03 11:10:11;;;;;;;19.63;8.10;;;;;;;10.77;100.00;94609.63;5036015;28;20197;-70
2024/03/03 11:12:42;;;;;;;24.23;7.50;;;;;;;11.05;100.00;94603.69;5035204;28;20205;-71
2024/03/03 11:15:13;;;;;;;20.07;8.63;;;;;;;11.61;100.00;94599.00;5035382;28;20217;-70
2024/03/03 11:17:42;;;;;;;18.30;6.77;;;;;;;10.66;100.00;94594.56;5035802;28;20228;-71
2024/03/03 11:20:16;;;;;;;16.37;6.57;;;;;;;11.15;100.00;94587.34;5035091;28;20216;-70